sensor_id;sensor_type;location;lat;lon;timestamp;P1;durP1;ratioP1;P2;durP2;ratioP2
29218;SDS011;16421;50.202;7.852;2023-02-12T00:04:05;6.30;;;4.13;;
29218;SDS011;16421;50.202;7.852;2023-02-12T00:09:08;7.78;;;5.05;;
29218;SDS011;16421;50.202;7.852;2023-02-12T00:14:12;6.30;;;4.07;;
29218;SDS011;16421;50.202;7.852;2023-02-12T00:19:17;6.45;;;3.97;;
29218;SDS011;16421;50.202;7.852;2023-02-12T00:24:20;7.68;;;4.25;;
29218;SDS011;16421;50.202;7.852;2023-02-12T00:29:24;6.97;;;4.55;;
29218;SDS011;16421;50.202;7.852;2023-02-12T00:34:28;6.93;;;4.60;;
29218;SDS011;16421;50.202;7.852;2023-02-12T00:39:32;7.80;;;4.53;;
29218;SDS011;16421;50.202;7.852;2023-02-12T00:44:38;7.43;;;4.22;;
29218;SDS011;16421;50.202;7.852;2023-02-12T00:49:43;7.78;;;4.20;;
29218;SDS011;16421;50.202;7.852;2023-02-12T00:54:46;5.72;;;4.05;;
29218;SDS011;16421;50.202;7.852;2023-02-12T00:59:50;5.15;;;3.78;;
29218;SDS011;16421;50.202;7.852;2023-02-12T01:04:55;6.10;;;3.75;;
29218;SDS011;16421;50.202;7.852;2023-02-12T01:09:58;7.00;;;3.97;;
29218;SDS011;16421;50.202;7.852;2023-02-12T01:15:03;6.28;;;4.10;;
29218;SDS011;16421;50.202;7.852;2023-02-12T01:20:10;4.97;;;3.53;;
29218;SDS011;16421;50.202;7.852;2023-02-12T01:25:17;5.15;;;3.65;;
29218;SDS011;16421;50.202;7.852;2023-02-12T01:30:32;5.30;;;3.50;;
29218;SDS011;16421;50.202;7.852;2023-02-12T01:35:37;5.57;;;3.78;;
29218;SDS011;16421;50.202;7.852;2023-02-12T01:40:41;6.93;;;4.32;;
29218;SDS011;16421;50.202;7.852;2023-02-12T01:45:48;6.15;;;3.83;;
29218;SDS011;16421;50.202;7.852;2023-02-12T01:50:57;5.47;;;4.03;;
29218;SDS011;16421;50.202;7.852;2023-02-12T01:56:04;5.93;;;4.22;;
29218;SDS011;16421;50.202;7.852;2023-02-12T02:01:10;5.07;;;3.63;;
29218;SDS011;16421;50.202;7.852;2023-02-12T02:06:18;6.03;;;3.58;;
29218;SDS011;16421;50.202;7.852;2023-02-12T02:11:23;6.03;;;3.75;;
29218;SDS011;16421;50.202;7.852;2023-02-12T02:16:46;5.80;;;4.10;;
29218;SDS011;16421;50.202;7.852;2023-02-12T02:22:12;5.50;;;3.50;;
29218;SDS011;16421;50.202;7.852;2023-02-12T02:27:24;6.32;;;3.95;;
29218;SDS011;16421;50.202;7.852;2023-02-12T02:32:35;6.32;;;3.70;;
29218;SDS011;16421;50.202;7.852;2023-02-12T02:37:44;5.65;;;3.90;;
29218;SDS011;16421;50.202;7.852;2023-02-12T02:42:53;6.93;;;3.88;;
29218;SDS011;16421;50.202;7.852;2023-02-12T02:48:01;5.65;;;4.00;;
29218;SDS011;16421;50.202;7.852;2023-02-12T02:53:11;7.07;;;4.45;;
29218;SDS011;16421;50.202;7.852;2023-02-12T02:58:18;5.78;;;4.38;;
29218;SDS011;16421;50.202;7.852;2023-02-12T03:03:27;5.55;;;3.85;;
29218;SDS011;16421;50.202;7.852;2023-02-12T03:08:34;5.85;;;3.95;;
29218;SDS011;16421;50.202;7.852;2023-02-12T03:13:42;7.75;;;4.18;;
29218;SDS011;16421;50.202;7.852;2023-02-12T03:18:51;6.38;;;4.18;;
29218;SDS011;16421;50.202;7.852;2023-02-12T03:23:59;6.57;;;4.50;;
29218;SDS011;16421;50.202;7.852;2023-02-12T03:29:06;6.07;;;3.85;;
29218;SDS011;16421;50.202;7.852;2023-02-12T03:34:12;7.07;;;4.15;;
29218;SDS011;16421;50.202;7.852;2023-02-12T03:39:24;4.88;;;3.63;;
29218;SDS011;16421;50.202;7.852;2023-02-12T03:44:39;5.93;;;4.00;;
29218;SDS011;16421;50.202;7.852;2023-02-12T03:49:52;7.50;;;4.40;;
29218;SDS011;16421;50.202;7.852;2023-02-12T03:55:02;7.45;;;4.47;;
29218;SDS011;16421;50.202;7.852;2023-02-12T04:00:08;7.40;;;4.45;;
29218;SDS011;16421;50.202;7.852;2023-02-12T04:10:35;6.43;;;3.97;;
29218;SDS011;16421;50.202;7.852;2023-02-12T04:15:49;8.40;;;4.32;;
29218;SDS011;16421;50.202;7.852;2023-02-12T04:21:05;6.53;;;4.07;;
29218;SDS011;16421;50.202;7.852;2023-02-12T04:26:20;6.20;;;4.53;;
29218;SDS011;16421;50.202;7.852;2023-02-12T04:31:28;6.95;;;4.45;;
29218;SDS011;16421;50.202;7.852;2023-02-12T04:36:37;6.53;;;4.53;;
29218;SDS011;16421;50.202;7.852;2023-02-12T04:41:46;6.97;;;4.47;;
29218;SDS011;16421;50.202;7.852;2023-02-12T04:46:50;7.65;;;4.60;;
29218;SDS011;16421;50.202;7.852;2023-02-12T04:51:55;6.47;;;4.28;;
29218;SDS011;16421;50.202;7.852;2023-02-12T04:56:59;8.05;;;4.40;;
29218;SDS011;16421;50.202;7.852;2023-02-12T05:02:03;34.90;;;16.75;;
29218;SDS011;16421;50.202;7.852;2023-02-12T05:07:09;63.47;;;27.23;;
29218;SDS011;16421;50.202;7.852;2023-02-12T05:12:12;53.47;;;24.42;;
29218;SDS011;16421;50.202;7.852;2023-02-12T05:17:16;50.60;;;22.48;;
29218;SDS011;16421;50.202;7.852;2023-02-12T05:22:21;33.65;;;16.23;;
29218;SDS011;16421;50.202;7.852;2023-02-12T05:27:24;20.08;;;10.55;;
29218;SDS011;16421;50.202;7.852;2023-02-12T05:32:27;14.60;;;7.80;;
29218;SDS011;16421;50.202;7.852;2023-02-12T05:37:34;10.77;;;6.15;;
29218;SDS011;16421;50.202;7.852;2023-02-12T05:42:37;10.02;;;5.68;;
29218;SDS011;16421;50.202;7.852;2023-02-12T05:47:40;8.00;;;5.20;;
29218;SDS011;16421;50.202;7.852;2023-02-12T05:52:45;8.35;;;5.50;;
29218;SDS011;16421;50.202;7.852;2023-02-12T05:57:49;8.32;;;4.82;;
29218;SDS011;16421;50.202;7.852;2023-02-12T06:02:52;9.50;;;5.35;;
29218;SDS011;16421;50.202;7.852;2023-02-12T06:07:57;9.77;;;5.50;;
29218;SDS011;16421;50.202;7.852;2023-02-12T06:13:00;7.38;;;5.47;;
29218;SDS011;16421;50.202;7.852;2023-02-12T06:18:03;9.35;;;5.40;;
29218;SDS011;16421;50.202;7.852;2023-02-12T06:23:08;8.90;;;4.97;;
29218;SDS011;16421;50.202;7.852;2023-02-12T06:28:11;7.18;;;4.72;;
29218;SDS011;16421;50.202;7.852;2023-02-12T06:33:15;8.18;;;5.93;;
29218;SDS011;16421;50.202;7.852;2023-02-12T06:38:19;8.15;;;5.40;;
29218;SDS011;16421;50.202;7.852;2023-02-12T06:43:23;8.90;;;5.25;;
29218;SDS011;16421;50.202;7.852;2023-02-12T06:48:26;8.90;;;5.75;;
29218;SDS011;16421;50.202;7.852;2023-02-12T06:53:32;8.23;;;5.70;;
29218;SDS011;16421;50.202;7.852;2023-02-12T06:58:36;8.60;;;5.15;;
29218;SDS011;16421;50.202;7.852;2023-02-12T07:03:41;7.95;;;5.00;;
29218;SDS011;16421;50.202;7.852;2023-02-12T07:08:49;10.63;;;5.97;;
29218;SDS011;16421;50.202;7.852;2023-02-12T07:13:54;10.65;;;6.13;;
29218;SDS011;16421;50.202;7.852;2023-02-12T07:18:57;9.95;;;6.05;;
29218;SDS011;16421;50.202;7.852;2023-02-12T07:24:02;8.32;;;5.68;;
29218;SDS011;16421;50.202;7.852;2023-02-12T07:29:05;10.10;;;5.80;;
29218;SDS011;16421;50.202;7.852;2023-02-12T07:34:09;8.80;;;4.85;;
29218;SDS011;16421;50.202;7.852;2023-02-12T07:39:14;10.15;;;6.07;;
29218;SDS011;16421;50.202;7.852;2023-02-12T07:44:18;10.65;;;6.22;;
29218;SDS011;16421;50.202;7.852;2023-02-12T07:49:21;8.90;;;5.80;;
29218;SDS011;16421;50.202;7.852;2023-02-12T07:54:27;11.25;;;6.13;;
29218;SDS011;16421;50.202;7.852;2023-02-12T07:59:30;9.40;;;5.78;;
29218;SDS011;16421;50.202;7.852;2023-02-12T08:04:33;10.00;;;6.38;;
29218;SDS011;16421;50.202;7.852;2023-02-12T08:09:38;9.48;;;6.28;;
29218;SDS011;16421;50.202;7.852;2023-02-12T08:14:41;9.38;;;6.45;;
29218;SDS011;16421;50.202;7.852;2023-02-12T08:19:45;10.32;;;6.15;;
29218;SDS011;16421;50.202;7.852;2023-02-12T08:24:52;9.52;;;6.32;;
29218;SDS011;16421;50.202;7.852;2023-02-12T08:29:58;12.65;;;6.93;;
29218;SDS011;16421;50.202;7.852;2023-02-12T08:35:01;12.73;;;6.45;;
29218;SDS011;16421;50.202;7.852;2023-02-12T08:45:16;19.05;;;9.25;;
29218;SDS011;16421;50.202;7.852;2023-02-12T08:50:19;19.92;;;9.45;;
29218;SDS011;16421;50.202;7.852;2023-02-12T08:55:24;18.35;;;9.20;;
29218;SDS011;16421;50.202;7.852;2023-02-12T09:00:28;21.15;;;9.77;;
29218;SDS011;16421;50.202;7.852;2023-02-12T09:05:31;21.10;;;9.60;;
29218;SDS011;16421;50.202;7.852;2023-02-12T09:10:38;22.98;;;10.05;;
29218;SDS011;16421;50.202;7.852;2023-02-12T09:15:43;34.97;;;16.02;;
29218;SDS011;16421;50.202;7.852;2023-02-12T09:20:47;37.95;;;18.13;;
29218;SDS011;16421;50.202;7.852;2023-02-12T09:25:52;28.77;;;13.55;;
29218;SDS011;16421;50.202;7.852;2023-02-12T09:30:57;22.05;;;10.98;;
29218;SDS011;16421;50.202;7.852;2023-02-12T09:36:11;35.42;;;15.35;;
29218;SDS011;16421;50.202;7.852;2023-02-12T09:41:31;27.10;;;12.80;;
29218;SDS011;16421;50.202;7.852;2023-02-12T09:46:59;22.45;;;11.40;;
29218;SDS011;16421;50.202;7.852;2023-02-12T09:52:05;25.00;;;11.80;;
29218;SDS011;16421;50.202;7.852;2023-02-12T09:57:18;30.23;;;14.60;;
29218;SDS011;16421;50.202;7.852;2023-02-12T10:02:26;23.05;;;11.77;;
29218;SDS011;16421;50.202;7.852;2023-02-12T10:07:37;22.10;;;11.07;;
29218;SDS011;16421;50.202;7.852;2023-02-12T10:13:01;20.30;;;9.98;;
29218;SDS011;16421;50.202;7.852;2023-02-12T10:18:20;24.85;;;12.43;;
29218;SDS011;16421;50.202;7.852;2023-02-12T10:23:44;22.85;;;11.00;;
29218;SDS011;16421;50.202;7.852;2023-02-12T10:29:00;18.30;;;9.90;;
29218;SDS011;16421;50.202;7.852;2023-02-12T10:34:14;21.48;;;10.48;;
29218;SDS011;16421;50.202;7.852;2023-02-12T10:39:20;21.25;;;10.05;;
29218;SDS011;16421;50.202;7.852;2023-02-12T10:44:28;17.17;;;9.18;;
29218;SDS011;16421;50.202;7.852;2023-02-12T10:49:32;22.85;;;12.18;;
29218;SDS011;16421;50.202;7.852;2023-02-12T10:54:37;20.33;;;10.63;;
29218;SDS011;16421;50.202;7.852;2023-02-12T10:59:45;21.98;;;11.52;;
29218;SDS011;16421;50.202;7.852;2023-02-12T11:04:50;24.17;;;11.98;;
29218;SDS011;16421;50.202;7.852;2023-02-12T11:09:55;25.13;;;13.18;;
29218;SDS011;16421;50.202;7.852;2023-02-12T11:15:04;31.92;;;16.27;;
29218;SDS011;16421;50.202;7.852;2023-02-12T11:20:19;27.65;;;14.32;;
29218;SDS011;16421;50.202;7.852;2023-02-12T11:25:27;25.10;;;12.55;;
29218;SDS011;16421;50.202;7.852;2023-02-12T11:30:33;25.67;;;13.18;;
29218;SDS011;16421;50.202;7.852;2023-02-12T11:35:40;22.90;;;12.40;;
29218;SDS011;16421;50.202;7.852;2023-02-12T11:40:55;21.40;;;10.20;;
29218;SDS011;16421;50.202;7.852;2023-02-12T11:46:24;27.75;;;14.88;;
29218;SDS011;16421;50.202;7.852;2023-02-12T11:51:29;32.70;;;15.85;;
29218;SDS011;16421;50.202;7.852;2023-02-12T11:56:41;26.80;;;12.52;;
29218;SDS011;16421;50.202;7.852;2023-02-12T12:01:48;20.58;;;10.80;;
29218;SDS011;16421;50.202;7.852;2023-02-12T12:06:56;18.88;;;9.65;;
29218;SDS011;16421;50.202;7.852;2023-02-12T12:12:07;17.98;;;9.55;;
29218;SDS011;16421;50.202;7.852;2023-02-12T12:17:16;19.13;;;9.88;;
29218;SDS011;16421;50.202;7.852;2023-02-12T12:22:39;16.50;;;9.32;;
29218;SDS011;16421;50.202;7.852;2023-02-12T12:27:59;15.60;;;8.07;;
29218;SDS011;16421;50.202;7.852;2023-02-12T12:33:12;14.70;;;7.85;;
29218;SDS011;16421;50.202;7.852;2023-02-12T12:38:22;12.75;;;7.50;;
29218;SDS011;16421;50.202;7.852;2023-02-12T12:43:39;14.37;;;7.07;;
29218;SDS011;16421;50.202;7.852;2023-02-12T12:48:58;14.10;;;7.72;;
29218;SDS011;16421;50.202;7.852;2023-02-12T12:54:28;18.92;;;10.02;;
29218;SDS011;16421;50.202;7.852;2023-02-12T13:10:58;14.45;;;8.52;;
29218;SDS011;16421;50.202;7.852;2023-02-12T13:16:07;15.02;;;7.55;;
29218;SDS011;16421;50.202;7.852;2023-02-12T13:21:17;9.98;;;6.07;;
29218;SDS011;16421;50.202;7.852;2023-02-12T13:26:39;8.13;;;5.35;;
29218;SDS011;16421;50.202;7.852;2023-02-12T13:31:49;13.45;;;7.45;;
29218;SDS011;16421;50.202;7.852;2023-02-12T13:36:56;13.32;;;7.07;;
29218;SDS011;16421;50.202;7.852;2023-02-12T13:42:15;10.15;;;5.75;;
29218;SDS011;16421;50.202;7.852;2023-02-12T13:47:28;9.93;;;5.13;;
29218;SDS011;16421;50.202;7.852;2023-02-12T13:52:38;7.93;;;4.80;;
29218;SDS011;16421;50.202;7.852;2023-02-12T13:57:50;12.10;;;6.78;;
29218;SDS011;16421;50.202;7.852;2023-02-12T14:08:37;2.80;;;2.08;;
29218;SDS011;16421;50.202;7.852;2023-02-12T14:13:50;2.65;;;1.85;;
29218;SDS011;16421;50.202;7.852;2023-02-12T14:30:01;2.83;;;2.08;;
29218;SDS011;16421;50.202;7.852;2023-02-12T14:35:29;2.40;;;1.67;;
29218;SDS011;16421;50.202;7.852;2023-02-12T14:40:36;3.15;;;2.28;;
29218;SDS011;16421;50.202;7.852;2023-02-12T14:45:46;2.10;;;1.85;;
29218;SDS011;16421;50.202;7.852;2023-02-12T14:50:49;5.45;;;2.63;;
29218;SDS011;16421;50.202;7.852;2023-02-12T14:55:53;4.45;;;2.28;;
29218;SDS011;16421;50.202;7.852;2023-02-12T15:00:59;3.05;;;1.92;;
29218;SDS011;16421;50.202;7.852;2023-02-12T15:06:06;3.50;;;2.20;;
29218;SDS011;16421;50.202;7.852;2023-02-12T15:11:19;5.70;;;3.13;;
29218;SDS011;16421;50.202;7.852;2023-02-12T15:16:40;4.43;;;2.70;;
29218;SDS011;16421;50.202;7.852;2023-02-12T15:21:50;4.88;;;3.15;;
29218;SDS011;16421;50.202;7.852;2023-02-12T15:26:56;6.10;;;3.67;;
29218;SDS011;16421;50.202;7.852;2023-02-12T15:32:03;5.37;;;3.40;;
29218;SDS011;16421;50.202;7.852;2023-02-12T15:37:14;10.15;;;5.63;;
29218;SDS011;16421;50.202;7.852;2023-02-12T15:42:27;9.50;;;5.78;;
29218;SDS011;16421;50.202;7.852;2023-02-12T15:47:34;9.13;;;5.20;;
29218;SDS011;16421;50.202;7.852;2023-02-12T15:52:38;10.40;;;5.63;;
29218;SDS011;16421;50.202;7.852;2023-02-12T15:57:47;9.02;;;4.97;;
29218;SDS011;16421;50.202;7.852;2023-02-12T16:02:53;7.90;;;4.63;;
29218;SDS011;16421;50.202;7.852;2023-02-12T16:07:57;8.73;;;5.30;;
29218;SDS011;16421;50.202;7.852;2023-02-12T16:13:01;10.57;;;5.93;;
29218;SDS011;16421;50.202;7.852;2023-02-12T16:18:20;7.82;;;4.70;;
29218;SDS011;16421;50.202;7.852;2023-02-12T16:23:24;8.13;;;5.18;;
29218;SDS011;16421;50.202;7.852;2023-02-12T16:28:28;7.43;;;4.38;;
29218;SDS011;16421;50.202;7.852;2023-02-12T16:33:38;7.30;;;4.70;;
29218;SDS011;16421;50.202;7.852;2023-02-12T16:38:46;7.25;;;4.28;;
29218;SDS011;16421;50.202;7.852;2023-02-12T16:49:33;6.22;;;3.65;;
29218;SDS011;16421;50.202;7.852;2023-02-12T16:54:39;6.18;;;4.00;;
29218;SDS011;16421;50.202;7.852;2023-02-12T16:59:42;5.67;;;3.60;;
29218;SDS011;16421;50.202;7.852;2023-02-12T17:04:47;6.13;;;3.78;;
29218;SDS011;16421;50.202;7.852;2023-02-12T17:09:51;6.17;;;4.03;;
29218;SDS011;16421;50.202;7.852;2023-02-12T17:14:55;6.60;;;4.47;;
29218;SDS011;16421;50.202;7.852;2023-02-12T17:20:00;6.55;;;3.88;;
29218;SDS011;16421;50.202;7.852;2023-02-12T17:25:05;6.40;;;4.22;;
29218;SDS011;16421;50.202;7.852;2023-02-12T17:30:09;7.43;;;4.63;;
29218;SDS011;16421;50.202;7.852;2023-02-12T17:35:18;6.60;;;4.63;;
29218;SDS011;16421;50.202;7.852;2023-02-12T17:40:21;7.47;;;4.82;;
29218;SDS011;16421;50.202;7.852;2023-02-12T17:45:25;7.32;;;5.07;;
29218;SDS011;16421;50.202;7.852;2023-02-12T17:50:32;9.35;;;5.72;;
29218;SDS011;16421;50.202;7.852;2023-02-12T17:55:36;6.45;;;4.45;;
29218;SDS011;16421;50.202;7.852;2023-02-12T18:00:40;8.30;;;4.45;;
29218;SDS011;16421;50.202;7.852;2023-02-12T18:05:47;6.07;;;4.17;;
29218;SDS011;16421;50.202;7.852;2023-02-12T18:10:51;6.40;;;4.45;;
29218;SDS011;16421;50.202;7.852;2023-02-12T18:15:55;6.00;;;4.25;;
29218;SDS011;16421;50.202;7.852;2023-02-12T18:21:00;5.60;;;3.33;;
29218;SDS011;16421;50.202;7.852;2023-02-12T18:26:07;4.10;;;2.90;;
29218;SDS011;16421;50.202;7.852;2023-02-12T18:31:12;6.07;;;3.40;;
29218;SDS011;16421;50.202;7.852;2023-02-12T18:36:21;5.18;;;3.38;;
29218;SDS011;16421;50.202;7.852;2023-02-12T18:41:26;5.13;;;3.33;;
29218;SDS011;16421;50.202;7.852;2023-02-12T18:46:31;4.95;;;3.17;;
29218;SDS011;16421;50.202;7.852;2023-02-12T18:51:36;5.57;;;3.78;;
29218;SDS011;16421;50.202;7.852;2023-02-12T18:56:42;5.90;;;3.85;;
29218;SDS011;16421;50.202;7.852;2023-02-12T19:01:48;5.85;;;3.80;;
29218;SDS011;16421;50.202;7.852;2023-02-12T19:06:53;6.97;;;4.28;;
29218;SDS011;16421;50.202;7.852;2023-02-12T19:11:57;5.70;;;4.13;;
29218;SDS011;16421;50.202;7.852;2023-02-12T19:17:01;6.75;;;4.50;;
29218;SDS011;16421;50.202;7.852;2023-02-12T19:22:06;6.60;;;4.28;;
29218;SDS011;16421;50.202;7.852;2023-02-12T19:27:12;5.22;;;3.55;;
29218;SDS011;16421;50.202;7.852;2023-02-12T19:32:15;7.10;;;4.65;;
29218;SDS011;16421;50.202;7.852;2023-02-12T19:37:20;5.57;;;3.70;;
29218;SDS011;16421;50.202;7.852;2023-02-12T19:42:24;6.17;;;3.83;;
29218;SDS011;16421;50.202;7.852;2023-02-12T19:47:35;5.28;;;4.00;;
29218;SDS011;16421;50.202;7.852;2023-02-12T19:52:47;6.50;;;4.00;;
29218;SDS011;16421;50.202;7.852;2023-02-12T19:57:51;6.30;;;3.92;;
29218;SDS011;16421;50.202;7.852;2023-02-12T20:02:55;6.28;;;4.35;;
29218;SDS011;16421;50.202;7.852;2023-02-12T20:07:59;8.07;;;5.13;;
29218;SDS011;16421;50.202;7.852;2023-02-12T20:13:03;10.90;;;6.47;;
29218;SDS011;16421;50.202;7.852;2023-02-12T20:18:06;11.02;;;6.47;;
29218;SDS011;16421;50.202;7.852;2023-02-12T20:23:11;12.32;;;6.57;;
29218;SDS011;16421;50.202;7.852;2023-02-12T20:28:14;7.97;;;5.10;;
29218;SDS011;16421;50.202;7.852;2023-02-12T20:33:18;7.10;;;4.55;;
29218;SDS011;16421;50.202;7.852;2023-02-12T20:38:23;6.78;;;4.97;;
29218;SDS011;16421;50.202;7.852;2023-02-12T20:43:26;9.25;;;5.63;;
29218;SDS011;16421;50.202;7.852;2023-02-12T20:48:30;11.57;;;6.93;;
29218;SDS011;16421;50.202;7.852;2023-02-12T20:53:35;14.88;;;8.98;;
29218;SDS011;16421;50.202;7.852;2023-02-12T20:58:41;15.52;;;8.18;;
29218;SDS011;16421;50.202;7.852;2023-02-12T21:03:46;20.05;;;10.35;;
29218;SDS011;16421;50.202;7.852;2023-02-12T21:08:54;17.02;;;10.23;;
29218;SDS011;16421;50.202;7.852;2023-02-12T21:13:58;17.92;;;9.77;;
29218;SDS011;16421;50.202;7.852;2023-02-12T21:19:21;18.35;;;10.52;;
29218;SDS011;16421;50.202;7.852;2023-02-12T21:24:27;19.60;;;10.45;;
29218;SDS011;16421;50.202;7.852;2023-02-12T21:29:32;20.95;;;11.48;;
29218;SDS011;16421;50.202;7.852;2023-02-12T21:34:35;21.83;;;11.35;;
29218;SDS011;16421;50.202;7.852;2023-02-12T21:39:40;20.98;;;10.82;;
29218;SDS011;16421;50.202;7.852;2023-02-12T21:44:44;17.92;;;9.82;;
29218;SDS011;16421;50.202;7.852;2023-02-12T21:49:47;14.30;;;8.05;;
29218;SDS011;16421;50.202;7.852;2023-02-12T21:54:53;15.65;;;7.85;;
29218;SDS011;16421;50.202;7.852;2023-02-12T21:59:57;13.15;;;6.80;;
29218;SDS011;16421;50.202;7.852;2023-02-12T22:05:00;10.77;;;6.28;;
29218;SDS011;16421;50.202;7.852;2023-02-12T22:10:06;11.82;;;6.60;;
29218;SDS011;16421;50.202;7.852;2023-02-12T22:15:10;9.95;;;6.25;;
29218;SDS011;16421;50.202;7.852;2023-02-12T22:20:14;9.30;;;5.75;;
29218;SDS011;16421;50.202;7.852;2023-02-12T22:25:19;10.68;;;6.05;;
29218;SDS011;16421;50.202;7.852;2023-02-12T22:30:22;7.93;;;5.05;;
29218;SDS011;16421;50.202;7.852;2023-02-12T22:35:26;7.70;;;5.18;;
29218;SDS011;16421;50.202;7.852;2023-02-12T22:40:30;9.23;;;5.53;;
29218;SDS011;16421;50.202;7.852;2023-02-12T22:45:34;6.95;;;4.53;;
29218;SDS011;16421;50.202;7.852;2023-02-12T22:50:37;7.60;;;4.85;;
29218;SDS011;16421;50.202;7.852;2023-02-12T22:55:42;6.93;;;4.93;;
29218;SDS011;16421;50.202;7.852;2023-02-12T23:00:45;7.05;;;5.05;;
29218;SDS011;16421;50.202;7.852;2023-02-12T23:05:48;6.85;;;4.93;;
29218;SDS011;16421;50.202;7.852;2023-02-12T23:10:53;5.75;;;4.03;;
29218;SDS011;16421;50.202;7.852;2023-02-12T23:15:57;6.72;;;4.38;;
29218;SDS011;16421;50.202;7.852;2023-02-12T23:21:00;5.70;;;4.03;;
29218;SDS011;16421;50.202;7.852;2023-02-12T23:26:05;7.18;;;4.75;;
29218;SDS011;16421;50.202;7.852;2023-02-12T23:31:09;6.22;;;4.63;;
29218;SDS011;16421;50.202;7.852;2023-02-12T23:36:12;6.25;;;4.13;;
29218;SDS011;16421;50.202;7.852;2023-02-12T23:41:16;6.80;;;4.63;;
29218;SDS011;16421;50.202;7.852;2023-02-12T23:46:20;7.22;;;4.97;;
29218;SDS011;16421;50.202;7.852;2023-02-12T23:51:23;6.00;;;4.50;;
29218;SDS011;16421;50.202;7.852;2023-02-12T23:56:28;7.78;;;5.00;;
